createdAt,value
2022-10-09T00:01:17.369Z,5.03
2022-10-09T00:03:46.550Z,4.70
2022-10-09T00:06:16.391Z,7.00
2022-10-09T00:08:43.831Z,8.07
2022-10-09T00:11:15.277Z,10.07
2022-10-09T00:13:42.627Z,12.73
2022-10-09T00:16:12.153Z,8.83
2022-10-09T00:18:39.775Z,8.30
2022-10-09T00:21:19.475Z,8.60
2022-10-09T00:23:49.287Z,5.87
2022-10-09T00:26:16.644Z,7.33
2022-10-09T00:28:47.112Z,7.30
2022-10-09T00:31:14.727Z,10.50
2022-10-09T00:33:42.281Z,7.07
2022-10-09T00:36:12.932Z,9.13
2022-10-09T00:38:40.036Z,6.90
2022-10-09T00:41:07.429Z,9.73
2022-10-09T00:43:41.832Z,6.77
2022-10-09T00:46:34.631Z,9.07
2022-10-09T00:51:37.592Z,6.03
2022-10-09T00:54:07.534Z,6.87
2022-10-09T00:56:35.724Z,10.77
2022-10-09T00:59:04.409Z,7.30
2022-10-09T01:01:31.603Z,15.40
2022-10-09T01:03:59.579Z,10.60
2022-10-09T01:06:51.539Z,9.87
2022-10-09T01:09:37.234Z,9.43
2022-10-09T01:12:27.781Z,10.73
2022-10-09T01:15:04.473Z,8.53
2022-10-09T01:18:07.725Z,11.80
2022-10-09T01:20:47.148Z,11.40
2022-10-09T01:23:47.734Z,7.43
2022-10-09T01:26:15.357Z,14.57
2022-10-09T01:28:53.056Z,10.33
2022-10-09T01:31:23.060Z,10.97
2022-10-09T01:33:51.053Z,11.67
2022-10-09T01:36:19.036Z,11.40
2022-10-09T01:38:46.967Z,14.13
2022-10-09T01:41:13.941Z,11.70
2022-10-09T01:43:41.598Z,10.70
2022-10-09T01:46:30.566Z,11.20
2022-10-09T01:49:37.868Z,14.17
2022-10-09T01:52:33.463Z,12.97
2022-10-09T01:55:30.546Z,8.80
2022-10-09T01:58:20.597Z,12.30
2022-10-09T02:00:56.828Z,12.50
2022-10-09T02:03:25.904Z,13.67
2022-10-09T02:05:54.514Z,12.03
2022-10-09T02:08:23.809Z,13.13
2022-10-09T02:10:55.217Z,10.90
2022-10-09T02:13:23.129Z,14.70
2022-10-09T02:16:18.267Z,11.50
2022-10-09T02:18:49.458Z,13.77
2022-10-09T02:21:42.964Z,10.93
2022-10-09T02:24:17.908Z,9.97
2022-10-09T02:26:47.103Z,16.97
2022-10-09T02:29:15.502Z,12.17
2022-10-09T02:31:44.319Z,11.77
2022-10-09T02:34:19.662Z,18.30
2022-10-09T02:36:47.828Z,12.50
2022-10-09T02:39:15.057Z,12.57
2022-10-09T02:41:42.329Z,10.80
2022-10-09T02:44:11.401Z,12.17
2022-10-09T02:46:38.738Z,10.90
2022-10-09T02:49:06.683Z,14.83
2022-10-09T02:51:33.883Z,17.93
2022-10-09T02:54:01.798Z,12.30
2022-10-09T02:56:30.362Z,12.80
2022-10-09T02:58:57.913Z,14.50
2022-10-09T03:01:25.230Z,15.07
2022-10-09T03:03:54.557Z,12.17
2022-10-09T03:06:24.909Z,10.33
2022-10-09T03:08:53.392Z,12.80
2022-10-09T03:11:22.182Z,18.27
2022-10-09T03:13:49.425Z,11.93
2022-10-09T03:16:21.951Z,15.30
2022-10-09T03:18:50.247Z,14.40
2022-10-09T03:21:20.161Z,10.03
2022-10-09T03:23:47.769Z,12.23
2022-10-09T03:26:17.392Z,8.80
2022-10-09T03:28:47.956Z,12.60
2022-10-09T03:31:39.281Z,10.53
2022-10-09T03:34:03.799Z,17.40
2022-10-09T03:36:31.821Z,14.73
2022-10-09T03:38:58.718Z,14.67
2022-10-09T03:41:25.826Z,17.80
2022-10-09T03:43:52.970Z,9.77
2022-10-09T03:46:19.924Z,11.13
2022-10-09T03:48:46.973Z,8.37
2022-10-09T03:51:13.860Z,9.27
2022-10-09T03:53:41.058Z,9.47
2022-10-09T03:56:08.189Z,8.53
2022-10-09T03:58:35.258Z,10.33
2022-10-09T04:01:02.366Z,7.70
2022-10-09T04:03:29.253Z,10.70
2022-10-09T04:05:56.130Z,11.43
2022-10-09T04:08:24.131Z,8.73
2022-10-09T04:10:57.871Z,10.33
2022-10-09T04:13:24.808Z,7.93
2022-10-09T04:15:52.625Z,8.03
2022-10-09T04:18:19.721Z,7.37
2022-10-09T04:20:54.557Z,9.33
2022-10-09T04:23:24.135Z,8.83
2022-10-09T04:25:59.606Z,12.87
2022-10-09T04:28:31.293Z,10.60
2022-10-09T04:30:59.425Z,10.47
2022-10-09T04:33:27.065Z,9.37
2022-10-09T04:35:55.557Z,11.77
2022-10-09T04:38:23.605Z,9.43
2022-10-09T04:41:02.779Z,9.77
2022-10-09T04:43:30.482Z,9.37
2022-10-09T04:45:57.604Z,9.03
2022-10-09T04:48:25.292Z,11.23
2022-10-09T04:50:52.158Z,9.73
2022-10-09T04:53:19.124Z,9.17
2022-10-09T04:55:46.394Z,12.80
2022-10-09T04:58:14.400Z,10.13
2022-10-09T05:00:43.590Z,14.33
2022-10-09T05:03:11.432Z,11.17
2022-10-09T05:05:38.653Z,11.60
2022-10-09T05:08:06.912Z,16.93
2022-10-09T05:10:34.938Z,14.13
2022-10-09T05:13:04.322Z,10.77
2022-10-09T05:15:32.012Z,13.23
2022-10-09T05:18:02.188Z,12.03
2022-10-09T05:20:29.717Z,14.50
2022-10-09T05:22:57.002Z,9.57
2022-10-09T05:25:24.126Z,10.93
2022-10-09T05:27:53.312Z,10.63
2022-10-09T05:30:20.484Z,12.27
2022-10-09T05:32:48.764Z,15.23
2022-10-09T05:35:15.927Z,8.73
2022-10-09T05:37:45.758Z,13.10
2022-10-09T05:40:13.723Z,7.73
2022-10-09T05:42:40.872Z,11.30
2022-10-09T05:45:08.640Z,15.37
2022-10-09T05:47:35.850Z,14.60
2022-10-09T05:50:07.346Z,13.13
2022-10-09T05:52:35.885Z,12.87
2022-10-09T05:55:02.839Z,15.50
2022-10-09T05:57:33.033Z,15.27
2022-10-09T06:00:01.138Z,12.17
2022-10-09T06:02:28.361Z,14.00
2022-10-09T06:04:55.379Z,13.00
2022-10-09T06:07:22.513Z,12.43
2022-10-09T06:09:50.594Z,10.17
2022-10-09T06:12:17.745Z,12.97
2022-10-09T06:14:51.954Z,12.33
2022-10-09T06:17:20.054Z,11.97
2022-10-09T06:19:47.167Z,13.70
2022-10-09T06:22:17.105Z,9.03
2022-10-09T06:24:45.180Z,10.60
2022-10-09T06:27:13.846Z,9.77
2022-10-09T06:29:40.899Z,5.37
2022-10-09T06:32:07.738Z,5.00
2022-10-09T06:34:35.826Z,5.70
2022-10-09T06:37:03.062Z,8.97
2022-10-09T06:39:30.140Z,4.83
2022-10-09T06:41:57.272Z,7.60
2022-10-09T06:44:24.457Z,9.57
2022-10-09T06:46:52.953Z,7.80
2022-10-09T06:49:20.027Z,8.53
2022-10-09T06:51:47.081Z,11.37
2022-10-09T06:54:16.346Z,11.23
2022-10-09T06:56:43.270Z,15.17
2022-10-09T06:59:11.192Z,9.97
2022-10-09T07:01:38.109Z,10.23
2022-10-09T07:04:09.196Z,8.77
2022-10-09T07:06:42.226Z,12.67
2022-10-09T07:09:12.350Z,9.17
2022-10-09T07:11:43.372Z,8.33
2022-10-09T07:14:12.199Z,10.40
2022-10-09T07:16:41.216Z,10.10
2022-10-09T07:19:11.410Z,8.00
2022-10-09T07:21:43.602Z,9.10
2022-10-09T07:24:11.639Z,7.83
2022-10-09T07:26:41.918Z,16.27
2022-10-09T07:29:12.059Z,6.80
2022-10-09T07:31:39.332Z,8.83
2022-10-09T07:34:07.785Z,7.23
2022-10-09T07:36:36.066Z,8.10
2022-10-09T07:39:04.661Z,7.83
2022-10-09T07:41:31.950Z,10.03
2022-10-09T07:43:59.124Z,11.70
2022-10-09T07:46:32.123Z,11.50
2022-10-09T07:49:00.272Z,9.43
2022-10-09T07:51:29.300Z,9.90
2022-10-09T07:54:00.381Z,6.87
2022-10-09T07:56:30.694Z,12.97
2022-10-09T07:59:02.628Z,10.37
2022-10-09T08:01:31.019Z,9.37
2022-10-09T08:03:58.904Z,10.60
2022-10-09T08:06:26.057Z,10.27
2022-10-09T08:08:54.962Z,9.53
2022-10-09T08:11:23.494Z,9.43
2022-10-09T08:13:51.154Z,11.40
2022-10-09T08:16:20.662Z,11.03
2022-10-09T08:18:48.308Z,10.97
2022-10-09T08:21:18.791Z,9.00
2022-10-09T08:23:47.671Z,10.17
2022-10-09T08:26:21.429Z,9.43
2022-10-09T08:28:53.486Z,12.70
2022-10-09T08:31:20.927Z,13.00
2022-10-09T08:33:48.159Z,8.63
2022-10-09T08:36:15.415Z,10.27
2022-10-09T08:38:47.985Z,9.07
2022-10-09T08:41:26.961Z,8.27
2022-10-09T08:44:03.553Z,9.43
2022-10-09T08:46:57.193Z,10.27
2022-10-09T08:49:50.979Z,7.77
2022-10-09T08:52:39.994Z,10.13
2022-10-09T08:55:16.898Z,7.93
2022-10-09T08:57:46.863Z,9.83
2022-10-09T09:00:19.201Z,13.07
2022-10-09T09:03:24.676Z,13.03
2022-10-09T09:06:00.866Z,8.63
2022-10-09T09:08:52.194Z,11.30
2022-10-09T09:11:36.615Z,6.87
2022-10-09T09:14:24.014Z,11.00
2022-10-09T09:17:23.139Z,8.37
2022-10-09T09:19:54.683Z,9.27
2022-10-09T09:22:24.371Z,10.03
2022-10-09T09:24:59.342Z,10.57
2022-10-09T09:27:34.358Z,10.23
2022-10-09T09:30:16.173Z,7.87
2022-10-09T09:33:12.538Z,13.53
2022-10-09T09:36:14.950Z,11.63
2022-10-09T09:39:12.658Z,13.17
2022-10-09T09:41:29.152Z,7.83
2022-10-09T09:43:56.199Z,11.43
2022-10-09T09:46:30.003Z,9.40
2022-10-09T09:48:57.254Z,11.03
2022-10-09T09:51:32.206Z,10.00
2022-10-09T09:54:07.480Z,11.53
2022-10-09T09:57:11.258Z,9.63
2022-10-09T09:59:37.961Z,14.00
2022-10-09T10:02:13.394Z,14.40
2022-10-09T10:04:50.750Z,12.40
2022-10-09T10:07:36.900Z,11.57
2022-10-09T10:10:17.902Z,11.63
2022-10-09T10:12:56.214Z,12.87
2022-10-09T10:15:30.631Z,12.97
2022-10-09T10:18:04.392Z,9.73
2022-10-09T10:20:33.636Z,11.03
2022-10-09T10:23:01.780Z,11.60
2022-10-09T10:25:34.090Z,11.00
2022-10-09T10:28:07.356Z,12.87
2022-10-09T10:30:36.388Z,14.67
2022-10-09T10:33:13.258Z,12.63
2022-10-09T10:35:43.330Z,15.90
2022-10-09T10:38:24.990Z,14.70
2022-10-09T10:41:17.748Z,18.00
2022-10-09T10:43:59.833Z,16.60
2022-10-09T10:46:26.855Z,14.97
2022-10-09T10:48:53.976Z,11.47
2022-10-09T10:51:26.653Z,9.50
2022-10-09T10:54:35.635Z,13.83
2022-10-09T10:57:44.530Z,13.37
2022-10-09T11:00:12.933Z,13.10
2022-10-09T11:02:52.416Z,7.90
2022-10-09T11:05:43.854Z,10.03
2022-10-09T11:08:51.606Z,9.93
2022-10-09T11:11:25.588Z,7.87
2022-10-09T11:14:07.057Z,9.47
2022-10-09T11:16:33.963Z,11.07
2022-10-09T11:19:03.566Z,10.37
2022-10-09T11:22:02.295Z,10.33
2022-10-09T11:24:55.813Z,7.87
2022-10-09T11:27:53.806Z,10.80
2022-10-09T11:30:20.940Z,8.80
2022-10-09T11:33:14.835Z,11.70
2022-10-09T11:35:56.249Z,9.33
2022-10-09T11:38:35.833Z,8.50
2022-10-09T11:41:07.325Z,9.77
2022-10-09T11:43:56.868Z,14.77
2022-10-09T11:46:35.441Z,10.10
2022-10-09T11:49:12.828Z,13.23
2022-10-09T11:51:51.446Z,12.67
2022-10-09T11:54:21.495Z,13.20
2022-10-09T11:57:05.962Z,15.93
2022-10-09T11:59:41.995Z,13.27
2022-10-09T12:02:30.684Z,11.50
2022-10-09T12:04:57.607Z,8.97
2022-10-09T12:10:27.978Z,9.47
2022-10-09T12:13:06.743Z,13.63
2022-10-09T12:15:54.629Z,10.50
2022-10-09T12:18:27.759Z,10.20
2022-10-09T12:20:56.771Z,8.83
2022-10-09T12:23:27.952Z,9.17
2022-10-09T12:25:56.350Z,7.90
2022-10-09T12:28:39.305Z,8.23
2022-10-09T12:31:20.902Z,7.80
2022-10-09T12:34:00.476Z,9.67
2022-10-09T12:36:30.108Z,7.33
2022-10-09T12:38:57.415Z,10.43
2022-10-09T12:41:29.419Z,6.67
2022-10-09T12:43:57.732Z,8.93
2022-10-09T12:46:37.111Z,8.73
2022-10-09T12:49:14.968Z,8.03
2022-10-09T12:51:42.068Z,9.63
2022-10-09T12:54:10.146Z,9.17
2022-10-09T12:56:38.888Z,7.83
2022-10-09T12:59:07.372Z,13.20
2022-10-09T13:01:35.254Z,6.23
2022-10-09T13:04:04.456Z,8.93
2022-10-09T13:06:46.668Z,8.27
2022-10-09T13:09:23.067Z,9.50
2022-10-09T13:11:59.623Z,10.70
2022-10-09T13:14:42.917Z,7.37
2022-10-09T13:17:36.007Z,10.30
2022-10-09T13:20:25.010Z,10.90
2022-10-09T13:23:02.957Z,8.90
2022-10-09T13:25:40.642Z,12.10
2022-10-09T13:28:07.691Z,10.27
2022-10-09T13:30:34.784Z,10.03
2022-10-09T13:33:01.773Z,6.93
2022-10-09T13:35:28.580Z,8.70
2022-10-09T13:37:55.400Z,8.17
2022-10-09T13:40:22.495Z,8.43
2022-10-09T13:42:55.749Z,6.73
2022-10-09T13:45:22.739Z,8.05
2022-10-09T13:47:49.946Z,7.47
2022-10-09T13:50:18.103Z,9.90
2022-10-09T13:52:45.491Z,6.70
2022-10-09T13:55:12.873Z,9.95
2022-10-09T13:57:39.687Z,11.63
2022-10-09T14:00:07.500Z,10.38
2022-10-09T14:02:34.388Z,10.70
2022-10-09T14:05:01.258Z,10.13
2022-10-09T14:07:28.185Z,12.95
2022-10-09T14:09:55.011Z,7.38
2022-10-09T14:12:21.830Z,6.18
2022-10-09T14:14:48.663Z,7.50
2022-10-09T14:17:15.537Z,8.02
2022-10-09T14:19:42.371Z,7.80
2022-10-09T14:22:09.206Z,7.25
2022-10-09T14:24:36.711Z,6.10
2022-10-09T14:27:03.699Z,9.77
2022-10-09T14:29:30.735Z,7.87
2022-10-09T14:31:57.572Z,10.30
2022-10-09T14:34:24.403Z,8.43
2022-10-09T14:36:51.274Z,9.40
2022-10-09T14:39:18.123Z,8.23
2022-10-09T14:41:45.962Z,13.70
2022-10-09T14:44:13.018Z,11.17
2022-10-09T14:46:39.940Z,11.10
2022-10-09T14:49:08.520Z,9.50
2022-10-09T14:51:37.731Z,8.97
2022-10-09T14:54:06.185Z,10.37
2022-10-09T14:56:33.904Z,8.27
2022-10-09T14:59:01.139Z,11.17
2022-10-09T15:01:29.544Z,7.10
2022-10-09T15:03:56.560Z,9.50
2022-10-09T15:06:28.030Z,7.67
2022-10-09T15:09:03.082Z,6.17
2022-10-09T15:11:33.444Z,6.17
2022-10-09T15:14:00.294Z,10.27
2022-10-09T15:16:27.322Z,7.43
2022-10-09T15:18:55.690Z,8.33
2022-10-09T15:21:28.991Z,10.27
2022-10-09T15:23:57.675Z,8.57
2022-10-09T15:26:26.496Z,7.73
2022-10-09T15:28:53.694Z,7.27
2022-10-09T15:31:31.740Z,13.17
2022-10-09T15:34:01.242Z,7.30
2022-10-09T15:36:29.518Z,8.17
2022-10-09T15:38:57.056Z,8.43
2022-10-09T15:41:26.946Z,10.60
2022-10-09T15:43:56.716Z,9.40
2022-10-09T15:46:24.726Z,10.70
2022-10-09T15:48:52.728Z,10.67
2022-10-09T15:51:20.606Z,12.73
2022-10-09T15:53:50.184Z,14.27
2022-10-09T15:56:20.488Z,19.77
2022-10-09T15:58:47.448Z,14.57
2022-10-09T16:01:16.871Z,15.80
2022-10-09T16:03:47.664Z,29.27
2022-10-09T16:06:17.517Z,45.57
2022-10-09T16:08:46.068Z,35.67
2022-10-09T16:11:14.939Z,46.70
2022-10-09T16:13:44.183Z,32.37
2022-10-09T16:16:14.761Z,29.33
2022-10-09T16:18:41.915Z,29.07
2022-10-09T16:21:13.904Z,33.00
2022-10-09T16:23:44.698Z,26.40
2022-10-09T16:26:15.753Z,30.60
2022-10-09T16:28:43.483Z,32.47
2022-10-09T16:31:28.291Z,24.90
2022-10-09T16:33:55.584Z,31.73
2022-10-09T16:36:23.108Z,25.47
2022-10-09T16:38:50.132Z,29.67
2022-10-09T16:41:20.199Z,32.10
2022-10-09T16:43:49.599Z,27.50
2022-10-09T16:46:23.299Z,30.07
2022-10-09T16:48:51.944Z,31.40
2022-10-09T16:51:22.056Z,30.60
2022-10-09T16:53:53.277Z,31.93
2022-10-09T16:56:23.418Z,25.10
2022-10-09T16:58:55.368Z,38.10
2022-10-09T17:01:22.507Z,40.17
2022-10-09T17:03:49.868Z,41.33
2022-10-09T17:06:23.691Z,36.40
2022-10-09T17:08:54.789Z,29.73
2022-10-09T17:11:22.404Z,33.83
2022-10-09T17:13:49.417Z,31.27
2022-10-09T17:16:21.299Z,31.43
2022-10-09T17:18:49.122Z,33.47
2022-10-09T17:21:18.367Z,26.80
2022-10-09T17:23:46.672Z,28.50
2022-10-09T17:26:18.514Z,33.57
2022-10-09T17:28:46.516Z,33.67
2022-10-09T17:31:16.372Z,31.90
2022-10-09T17:33:46.200Z,35.37
2022-10-09T17:36:16.080Z,29.37
2022-10-09T17:38:43.555Z,33.33
2022-10-09T17:41:12.431Z,34.73
2022-10-09T17:43:39.869Z,32.80
2022-10-09T17:46:07.614Z,34.73
2022-10-09T17:48:35.008Z,36.37
2022-10-09T17:51:06.315Z,38.13
2022-10-09T17:53:33.167Z,39.73
2022-10-09T17:56:03.666Z,42.23
2022-10-09T17:58:30.676Z,42.80
2022-10-09T18:00:57.552Z,47.57
2022-10-09T18:03:24.637Z,48.17
2022-10-09T18:05:51.769Z,46.13
2022-10-09T18:08:19.326Z,42.93
2022-10-09T18:10:46.453Z,47.33
2022-10-09T18:13:13.528Z,45.30
2022-10-09T18:15:44.318Z,47.03
2022-10-09T18:18:11.939Z,49.07
2022-10-09T18:20:40.104Z,44.67
2022-10-09T18:23:08.407Z,113.60
2022-10-09T18:25:40.483Z,129.10
2022-10-09T18:28:07.565Z,110.90
2022-10-09T18:30:34.617Z,82.73
2022-10-09T18:33:01.429Z,74.97
2022-10-09T18:35:30.389Z,61.87
2022-10-09T18:37:57.407Z,59.10
2022-10-09T18:40:24.286Z,50.23
2022-10-09T18:42:52.658Z,50.00
2022-10-09T18:45:19.986Z,53.40
2022-10-09T18:47:46.972Z,50.53
2022-10-09T18:50:15.780Z,47.07
2022-10-09T18:52:43.525Z,51.37
2022-10-09T18:55:14.324Z,47.57
2022-10-09T18:57:42.028Z,50.17
2022-10-09T19:00:09.778Z,49.87
2022-10-09T19:02:36.654Z,53.93
2022-10-09T19:05:04.157Z,63.90
2022-10-09T19:07:31.245Z,63.00
2022-10-09T19:09:59.208Z,52.67
2022-10-09T19:12:26.299Z,46.90
2022-10-09T19:14:53.549Z,51.63
2022-10-09T19:17:20.946Z,51.17
2022-10-09T19:19:47.856Z,47.63
2022-10-09T19:22:18.123Z,51.20
2022-10-09T19:24:46.952Z,54.80
2022-10-09T19:27:15.036Z,49.80
2022-10-09T19:29:41.864Z,52.50
2022-10-09T19:32:08.827Z,54.57
2022-10-09T19:34:35.694Z,54.97
2022-10-09T19:39:33.021Z,53.40
2022-10-09T19:42:00.091Z,60.27
2022-10-09T19:44:27.181Z,61.83
2022-10-09T19:46:55.292Z,62.87
2022-10-09T19:49:22.157Z,58.60
2022-10-09T19:51:49.542Z,54.70
2022-10-09T19:54:17.648Z,53.20
2022-10-09T19:56:44.496Z,61.90
2022-10-09T19:59:11.353Z,55.93
2022-10-09T20:01:40.275Z,58.53
2022-10-09T20:04:09.635Z,52.73
2022-10-09T20:06:41.901Z,54.63
2022-10-09T20:09:10.567Z,51.30
2022-10-09T20:11:37.766Z,52.90
2022-10-09T20:14:05.292Z,51.20
2022-10-09T20:16:33.584Z,51.27
2022-10-09T20:19:01.480Z,45.27
2022-10-09T20:21:30.647Z,45.20
2022-10-09T20:24:00.350Z,44.97
2022-10-09T20:26:28.227Z,42.53
2022-10-09T20:28:55.461Z,44.07
2022-10-09T20:31:24.264Z,46.40
2022-10-09T20:33:51.828Z,47.27
2022-10-09T20:36:20.011Z,44.73
2022-10-09T20:38:46.940Z,43.67
2022-10-09T20:41:15.109Z,45.27
2022-10-09T20:43:41.990Z,45.73
2022-10-09T20:46:14.663Z,43.50
2022-10-09T20:48:43.112Z,47.60
2022-10-09T20:51:10.234Z,43.13
2022-10-09T20:53:37.094Z,44.73
2022-10-09T20:56:07.644Z,47.93
2022-10-09T20:58:35.399Z,43.37
2022-10-09T21:01:07.584Z,43.03
2022-10-09T21:03:35.461Z,46.10
2022-10-09T21:06:11.428Z,39.60
2022-10-09T21:08:38.964Z,45.23
2022-10-09T21:11:09.205Z,47.37
2022-10-09T21:13:37.278Z,47.23
2022-10-09T21:16:09.534Z,44.10
2022-10-09T21:18:37.508Z,44.20
2022-10-09T21:21:14.219Z,44.13
2022-10-09T21:23:42.725Z,41.90
2022-10-09T21:26:14.314Z,46.27
2022-10-09T21:28:42.285Z,48.03
2022-10-09T21:31:15.894Z,42.03
2022-10-09T21:33:43.060Z,50.70
2022-10-09T21:36:29.570Z,51.83
2022-10-09T21:38:56.509Z,48.60
2022-10-09T21:41:23.819Z,44.97
2022-10-09T21:43:50.670Z,60.37
2022-10-09T21:46:17.501Z,64.70
2022-10-09T21:48:44.344Z,54.67
2022-10-09T21:51:11.166Z,56.07
2022-10-09T21:53:38.011Z,50.67
2022-10-09T21:56:06.193Z,45.80
2022-10-09T21:58:33.383Z,41.80
2022-10-09T22:01:01.920Z,46.87
2022-10-09T22:03:32.392Z,48.27
2022-10-09T22:05:59.467Z,50.20
2022-10-09T22:08:28.050Z,47.33
2022-10-09T22:10:54.878Z,42.90
2022-10-09T22:13:22.568Z,47.80
2022-10-09T22:15:51.719Z,44.23
2022-10-09T22:18:19.869Z,38.83
2022-10-09T22:20:49.488Z,38.90
2022-10-09T22:23:18.756Z,37.67
2022-10-09T22:25:55.702Z,37.47
2022-10-09T22:28:22.917Z,41.53
2022-10-09T22:31:02.452Z,42.77
2022-10-09T22:33:31.141Z,37.47
2022-10-09T22:36:12.785Z,40.57
2022-10-09T22:38:41.060Z,36.13
2022-10-09T22:41:17.820Z,36.43
2022-10-09T22:43:46.468Z,37.20
2022-10-09T22:46:21.749Z,40.40
2022-10-09T22:48:49.983Z,36.90
2022-10-09T22:51:18.952Z,34.87
2022-10-09T22:53:46.810Z,35.87
2022-10-09T22:56:19.585Z,37.17
2022-10-09T22:58:47.553Z,34.17
2022-10-09T23:01:23.451Z,33.47
2022-10-09T23:03:51.480Z,34.00
2022-10-09T23:06:20.199Z,34.63
2022-10-09T23:08:49.000Z,39.30
2022-10-09T23:11:18.011Z,32.70
2022-10-09T23:13:45.481Z,37.57
2022-10-09T23:16:14.309Z,36.83
2022-10-09T23:18:42.471Z,32.83
2022-10-09T23:21:15.762Z,30.17
2022-10-09T23:23:44.138Z,30.83
2022-10-09T23:26:31.990Z,46.40
2022-10-09T23:29:01.977Z,33.97
2022-10-09T23:31:29.690Z,36.57
2022-10-09T23:33:58.085Z,32.87
2022-10-09T23:36:27.188Z,35.77
2022-10-09T23:38:54.483Z,31.40
2022-10-09T23:41:24.109Z,35.00
2022-10-09T23:43:51.577Z,33.30
2022-10-09T23:46:22.217Z,36.40
2022-10-09T23:48:50.454Z,35.97
2022-10-09T23:51:19.429Z,36.10
2022-10-09T23:53:47.455Z,32.23
2022-10-09T23:56:21.497Z,30.87
2022-10-09T23:58:49.511Z,35.00
